Logo AVAMET
Benvolgut visitant, si us plau, ingressa Recuperar contrasenya
AVAMET paisatges

Elx Atzavares Alt

Dades diàries. Acumulats / Últims 30 dies disponibles

Data Temperatura (°C) Humitat rel. (%) Pressió rel. (hPa) Vent (km/h) Precipitació
Mínima Mitjana Màxima Amplitud
tèrmica
Mínima Mitjana Màxima Mínima Mitjana Màxima Predom. Mitjana Ràfega
màxima
Total
(mm)
Índex-n
Mínima Mitjana Màxima Mínima Mitjana Màxima n
0 a 1
P0 max
mm 5'
Dades mensuals acumulades fins l'últim dia disponible
01/2021 2,3 5,2 9,6 8,8 8,7 13,3 18,0 15,7 27 63 94 1.003 1.016 1.030   1,8 24,1 14,8
Dades anuals acumulades fins l'últim dia disponible
2021 2,3 5,2 9,6 8,8 8,7 13,3 18,0 15,7 27 63 94 1.003 1.016 1.030   1,8 24,1 14,8
Últims 30 dies disponibles
15-01-2021 9,6     12,9     18,0 8,4 31 48 62 1.022 1.024 1.025 SSO 3,8 14,5 0,0
14-01-2021 5,7     10,3     17,4 11,7 33 53 82 1.022 1.025 1.028 SSO 1,2 14,5 0,0
13-01-2021 5,8     9,4     15,7 9,9 35 57 86 1.027 1.028 1.030 OSO 1,3 14,5 0,0
12-01-2021 3,7     8,4     14,2 10,5 37 52 68 1.026 1.027 1.029 SSE 1,4 12,9 0,0
11-01-2021 5,5     8,6     14,4 8,9 55 78 90 1.016 1.020 1.025 OSO 1,3 12,9 0,4
10-01-2021 5,4     7,7     11,3 5,9 75 84 92 1.007 1.012 1.017 S 0,9 8,0
09-01-2021 6,6     8,8     11,9 5,3 78 85 94 1.003 1.005 1.008 SSO 1,0 14,5 1,6
08-01-2021 5,4     7,5     8,7 3,3 84 90 93 1.005 1.009 1.011 SO 4,0 17,7 9,2 0,42 0,40
07-01-2021 6,0     7,2     9,6 3,6 63 86 91 1.010 1.011 1.013 SSO 1,7 8,0 3,6 0,42 0,40
06-01-2021 4,1     8,2     13,1 9,0 45 58 70 1.012 1.014 1.016 SO 1,6 8,0 0,0
05-01-2021 4,0     7,8     12,6 8,6 27 53 68 1.011 1.012 1.014 SSO 1,9 16,1 0,0
04-01-2021 2,3     9,0     14,4 12,1 38 51 67 1.011 1.013 1.015 S 1,4 11,3 0,0
03-01-2021 3,8     8,4     13,2 9,4 34 46 59 1.012 1.014 1.016 S 2,3 24,1 0,0
02-01-2021 4,0     8,2     11,7 7,7 36 51 76 1.010 1.011 1.013 SSE 1,5 16,1 0,0
01-01-2021 6,4     9,6     13,0 6,6 43 56 70 1.007 1.009 1.011 SSE 1,0 17,7 0,0
31-12-2020 3,5     9,8     15,9 12,4 32 51 71 1.012 1.015 1.019 E 0,6 8,0 0,0
30-12-2020 6,4     9,9     14,2 7,8 36 50 65 1.011 1.016 1.019 S 2,0 16,1 0,0
29-12-2020 6,9     11,1     15,8 8,9 40 54 71 1.006 1.007 1.011 SSE 1,3 16,1 0,0
28-12-2020 2,8     10,4     15,6 12,8 38 54 80 1.000 1.004 1.006 SSE 1,5 24,1 0,6
27-12-2020 1,3     8,3     15,3 14,0 27 52 73 1.005 1.015 1.024 ENE 0,8 4,8 0,0
26-12-2020 4,0     8,1     13,4 9,4 26 42 55 1.024 1.025 1.028 SSE 2,8 14,5 0,0
25-12-2020 6,9     11,6     16,6 9,7 28 54 93 1.021 1.023 1.028 SSO 2,7 14,5 0,0
24-12-2020 9,6     14,5     20,7 11,1 47 72 91 1.020 1.022 1.023 S 0,9 11,3 0,0
23-12-2020 7,4     12,9     19,8 12,4 53 81 94 1.022 1.024 1.027 S 0,4 16,1 0,0
22-12-2020 7,9     12,8     20,3 12,4 52 78 92 1.026 1.028 1.030 OSO 0,0 1,6 0,0
21-12-2020 8,3     13,0     18,1 9,8 53 73 86 1.027 1.028 1.030 SO 0,5 6,4 0,0
20-12-2020 10,7     14,9     19,5 8,8 49 70 86 1.021 1.022 1.026 S 1,4 11,3 0,0
19-12-2020 7,6     12,0     18,4 10,8 60 83 91 1.020 1.021 1.023 NNO 0,2 4,8 0,0
18-12-2020 9,2     12,7     19,8 10,6 55 76 90 1.021 1.023 1.025 OSO 0,2 4,8 0,0
17-12-2020 9,6     12,8     18,8 9,2 61 79 90 1.018 1.021 1.024 SO 0,1 3,2 0,0
Últims 13 mesos disponibles
12/2020 1,3 7,8 14,8 12,5 13,1 18,2 25,2 23,9 42 63 83 999 1.016 1.028 S 1,1 24,1 1,6
11/2020 7,6 12,0 16,0 15,9 18,9 21,8 26,6 19,0 69 79 87 1.006 1.022 1.029 SO 0,6 19,3 13,6
10/2020 9,8 13,9 17,8 18,9 20,8 26,1 32,9 23,1 45 61 84 999 1.016 1.026 SSE 0,9 30,6 0,6
09/2020 14,6 19,0 21,3 23,5 23,8 29,4 32,8 18,2 28 66 84 1.011 1.016 1.022 SSW 1,0 35,4 2,8
08/2020 17,8 21,6 24,8 26,8 27,6 33,0 37,1 19,3 44 69 80 1.002 1.013 1.017 NNW 1,1 22,5 13,0
07/2020 19,2 21,0 22,9 25,8 29,7 31,1 33,4 14,2 59 65 70 1.015 1.016 1.016 NNW 1,4 22,5 0,0
06/2020 14,9 18,0 21,3 23,2 22,2 29,0 32,3 17,4 55 72 87 1.006 1.014 1.020 NNW 1,1 33,8 8,0
04/2020 8,7 12,4 17,2 16,5 17,4 21,5 27,7 19,0 58 78 87 1.007 1.017 1.026 SSW 1,0 25,7 33,6
03/2020 7,7 10,3 14,6 14,6 10,8 19,9 26,9 19,2 43 71 91 1.009 1.017 1.025 SSW 1,7 46,7 70,0
02/2020 5,7 9,3 12,9 14,6 14,8 21,4 27,8 22,1 44 72 90 1.015 1.026 1.034 SSW 0,9 32,2 1,2
01/2020 3,3 6,7 13,6 11,2 13,4 17,1 21,9 18,6 64 76 87 1.014 1.026 1.033 SSW 1,2 48,3 46,0
12/2019 4,8 9,7 14,9 13,6 13,8 18,8 24,7 19,9 48 73 88 1.006 1.019 1.033 SSW 1,1 38,6 41,6
11/2019 5,8 10,6 18,1 15,0 13,6 20,0 28,0 22,2 47 63 92 1.001 1.012 1.019 SSW 1,2 43,5 15,8
Tots els anys disponibles
2019 2,4 13,6 24,8 18,4 13,1 24,3 39,1 36,7 36 68 92 997 1.017 1.033 SSW 0,9 43,5 355,7
2018 3,3 13,9 24,6 18,5 10,1 24,2 38,1 34,8 41 73 91 1.000 1.017 1.032 SSW 0,9 48,3 214,0
2017 1,4 13,8 26,8 18,6 7,6 24,4 36,8 35,4 1,1 51,5 162,2
2016 3,2 14,1 23,6 18,6 12,2 24,1 39,6 36,4 1,2 38,6 174,6
2015 -0,3 14,2 20,8 18,7 23,2 24,3 40,7 41,0 67 67 67 1.034 1.034 1.034 1,9 54,7 125,8
2014 0,9 14,4 24,6 19,2 10,1 24,4 37,2 36,3 45 69 88 993 1.015 1.034 45,0 109,4
Temperatura (°C)
Humitat relativa (%)
Velocitat del vent i ràfega màxima (km/h)
Direcció del vent (°)
Pressió (hPa)
Precipitació (mm)
Nota sobre les dades: s'avisa a l'usuari de la provisionalitat i no oficialitat d'aquestes dades
Logo AVAMET blanc
Web allotjada a Sollutia
Llicència de Creative CommonsLa web d'AVAMET i els seus continguts estan subjectes a una llicència de
Reconeixement - No Comercial - Compartir igual
Avís legal - Política de privacitat - Política de cookies
NOVES ESTACIONS: Onda - CR Cota 220 (Soci), Artana (Ajuntament/Soci), Sax (Soci), Benicarló - Sant Gregori (Soci), Riba-roja de Túria - la Reva (Soci), Castielfabib - Arroyo Cerezo (Pròpia d'AVAMET), Tavernes de la Valldigna - Ull del Bou/Cambro (Soci), Chella - Casa Conde (Soci), El Genovés (Inforatge), Benirredrà (Inforatge), Villena - Finca La Glòria (Soci), València - l'Olivereta (Soci) - - -